createdAt,value
2017-09-01T00:01:36.077Z,13.17
2017-09-01T00:04:02.179Z,13.20
2017-09-01T00:06:28.295Z,15.10
2017-09-01T00:08:54.386Z,13.60
2017-09-01T00:11:20.519Z,13.23
2017-09-01T00:13:46.568Z,15.40
2017-09-01T00:16:12.650Z,16.27
2017-09-01T00:18:38.719Z,15.80
2017-09-01T00:21:04.811Z,16.80
2017-09-01T00:23:30.887Z,16.43
2017-09-01T00:25:56.998Z,17.10
2017-09-01T00:28:23.091Z,18.17
2017-09-01T00:30:49.954Z,17.30
2017-09-01T00:33:16.034Z,16.77
2017-09-01T00:35:42.101Z,15.20
2017-09-01T00:38:08.195Z,16.30
2017-09-01T00:40:34.278Z,17.23
2017-09-01T00:43:00.374Z,18.33
2017-09-01T00:45:26.447Z,16.93
2017-09-01T00:47:52.527Z,16.03
2017-09-01T00:50:18.871Z,16.33
2017-09-01T00:52:44.961Z,16.17
2017-09-01T00:55:11.074Z,15.60
2017-09-01T00:57:37.119Z,14.07
2017-09-01T01:00:03.210Z,15.67
2017-09-01T01:02:29.312Z,14.50
2017-09-01T01:04:55.427Z,12.50
2017-09-01T01:07:21.538Z,13.30
2017-09-01T01:09:47.649Z,12.77
2017-09-01T01:12:13.789Z,12.57
2017-09-01T01:14:39.901Z,11.50
2017-09-01T01:17:06.011Z,11.00
2017-09-01T01:19:32.071Z,13.37
2017-09-01T01:21:58.152Z,11.27
2017-09-01T01:24:24.248Z,9.90
2017-09-01T01:26:50.325Z,9.80
2017-09-01T01:29:16.422Z,8.97
2017-09-01T01:31:42.500Z,8.60
2017-09-01T01:34:08.617Z,8.43
2017-09-01T01:36:35.696Z,7.63
2017-09-01T01:39:01.791Z,7.43
2017-09-01T01:41:27.860Z,7.53
2017-09-01T01:43:53.946Z,7.97
2017-09-01T01:46:20.010Z,7.73
2017-09-01T01:48:46.088Z,8.30
2017-09-01T01:51:12.183Z,8.43
2017-09-01T01:53:38.260Z,8.70
2017-09-01T01:56:04.365Z,8.90
2017-09-01T01:58:30.472Z,9.37
2017-09-01T02:00:56.588Z,9.20
2017-09-01T02:03:22.661Z,10.37
2017-09-01T02:05:48.764Z,10.63
2017-09-01T02:08:14.920Z,10.57
2017-09-01T02:10:41.011Z,10.80
2017-09-01T02:13:07.111Z,11.47
2017-09-01T02:15:33.209Z,12.10
2017-09-01T02:17:59.280Z,14.90
2017-09-01T02:20:25.347Z,14.00
2017-09-01T02:22:51.412Z,14.20
2017-09-01T02:25:17.505Z,14.03
2017-09-01T02:27:43.576Z,15.97
2017-09-01T02:30:09.641Z,15.00
2017-09-01T02:32:35.732Z,14.80
2017-09-01T02:35:01.846Z,15.43
2017-09-01T02:37:27.918Z,16.47
2017-09-01T02:39:53.988Z,16.70
2017-09-01T02:42:20.051Z,16.33
2017-09-01T02:44:46.784Z,15.50
2017-09-01T02:47:12.863Z,16.63
2017-09-01T02:49:38.954Z,15.77
2017-09-01T02:52:05.028Z,17.00
2017-09-01T02:54:31.120Z,16.80
2017-09-01T02:56:57.233Z,17.23
2017-09-01T02:59:23.272Z,18.07
2017-09-01T03:01:49.353Z,18.13
2017-09-01T03:04:15.472Z,18.30
2017-09-01T03:06:41.539Z,19.17
2017-09-01T03:09:07.628Z,20.30
2017-09-01T03:11:33.718Z,20.70
2017-09-01T03:13:59.813Z,19.30
2017-09-01T03:16:25.944Z,19.83
2017-09-01T03:18:52.092Z,19.97
2017-09-01T03:21:18.153Z,20.53
2017-09-01T03:23:44.237Z,19.60
2017-09-01T03:26:10.305Z,19.53
2017-09-01T03:28:36.531Z,19.87
2017-09-01T03:31:02.625Z,21.70
2017-09-01T03:33:28.738Z,22.00
2017-09-01T03:35:54.865Z,23.07
2017-09-01T03:38:20.972Z,22.30
2017-09-01T03:40:47.068Z,23.87
2017-09-01T03:43:13.168Z,23.40
2017-09-01T03:45:39.216Z,22.90
2017-09-01T03:48:05.373Z,26.17
2017-09-01T03:50:31.533Z,26.07
2017-09-01T03:52:57.648Z,26.43
2017-09-01T03:55:23.743Z,27.90
2017-09-01T03:57:49.853Z,26.23
2017-09-01T04:00:15.951Z,26.30
2017-09-01T04:02:42.040Z,24.90
2017-09-01T04:05:08.140Z,26.63
2017-09-01T04:07:34.184Z,23.47
2017-09-01T04:10:00.292Z,21.87
2017-09-01T04:12:26.413Z,24.10
2017-09-01T04:14:52.541Z,21.07
2017-09-01T04:17:18.637Z,21.27
2017-09-01T04:19:44.748Z,21.77
2017-09-01T04:22:10.821Z,21.27
2017-09-01T04:24:36.912Z,18.63
2017-09-01T04:27:03.042Z,19.77
2017-09-01T04:29:29.110Z,17.70
2017-09-01T04:31:55.174Z,16.73
2017-09-01T04:34:21.268Z,16.23
2017-09-01T04:36:47.598Z,15.90
2017-09-01T04:39:13.692Z,17.90
2017-09-01T04:41:39.865Z,17.13
2017-09-01T04:44:05.946Z,21.33
2017-09-01T04:46:32.034Z,19.20
2017-09-01T04:48:58.171Z,20.93
2017-09-01T04:51:24.253Z,20.00
2017-09-01T04:53:50.356Z,19.73
2017-09-01T04:56:16.459Z,19.63
2017-09-01T04:58:42.530Z,19.47
2017-09-01T05:01:08.715Z,17.13
2017-09-01T05:03:34.794Z,18.40
2017-09-01T05:06:00.894Z,18.30
2017-09-01T05:08:26.973Z,17.70
2017-09-01T05:10:53.058Z,18.37
2017-09-01T05:13:19.174Z,16.20
2017-09-01T05:15:45.277Z,18.87
2017-09-01T05:18:11.370Z,19.30
2017-09-01T05:20:37.485Z,19.97
2017-09-01T05:23:03.576Z,18.77
2017-09-01T05:25:29.680Z,18.20
2017-09-01T05:27:55.785Z,17.10
2017-09-01T05:30:21.878Z,18.37
2017-09-01T05:32:47.977Z,17.23
2017-09-01T05:35:14.080Z,18.17
2017-09-01T05:37:40.179Z,18.50
2017-09-01T05:40:06.306Z,19.23
2017-09-01T05:42:33.196Z,18.17
2017-09-01T05:44:59.295Z,16.10
2017-09-01T05:47:25.397Z,17.43
2017-09-01T05:49:51.458Z,16.70
2017-09-01T05:52:17.586Z,18.67
2017-09-01T05:54:43.669Z,15.93
2017-09-01T05:57:09.742Z,18.23
2017-09-01T05:59:35.883Z,19.10
2017-09-01T06:02:01.993Z,19.17
2017-09-01T06:04:28.168Z,20.13
2017-09-01T06:07:01.453Z,17.50
2017-09-01T06:09:27.555Z,17.50
2017-09-01T06:11:53.634Z,16.90
2017-09-01T06:14:19.741Z,17.40
2017-09-01T06:16:45.840Z,16.43
2017-09-01T06:19:12.291Z,16.20
2017-09-01T06:21:38.382Z,17.77
2017-09-01T06:24:04.456Z,16.83
2017-09-01T06:26:30.546Z,14.13
2017-09-01T06:28:56.632Z,15.40
2017-09-01T06:31:22.716Z,14.47
2017-09-01T06:33:48.844Z,12.07
2017-09-01T06:36:14.928Z,13.30
2017-09-01T06:38:41.055Z,11.70
2017-09-01T06:41:07.143Z,13.43
2017-09-01T06:43:33.245Z,14.30
2017-09-01T06:45:59.327Z,15.00
2017-09-01T06:48:25.467Z,17.07
2017-09-01T06:50:51.550Z,16.50
2017-09-01T06:53:17.668Z,17.37
2017-09-01T06:55:43.748Z,18.10
2017-09-01T06:58:09.824Z,16.50
2017-09-01T07:00:35.928Z,17.80
2017-09-01T07:03:01.988Z,15.90
2017-09-01T07:05:28.056Z,16.50
2017-09-01T07:07:54.146Z,15.50
2017-09-01T07:10:20.244Z,16.07
2017-09-01T07:12:46.367Z,16.10
2017-09-01T07:15:12.426Z,16.07
2017-09-01T07:17:38.504Z,16.17
2017-09-01T07:20:04.640Z,13.97
2017-09-01T07:22:30.728Z,14.10
2017-09-01T07:24:56.807Z,14.93
2017-09-01T07:27:22.923Z,14.67
2017-09-01T07:29:49.026Z,15.00
2017-09-01T07:32:15.113Z,14.27
2017-09-01T07:34:41.217Z,14.13
2017-09-01T07:37:07.276Z,14.10
2017-09-01T07:39:33.365Z,13.93
2017-09-01T07:41:59.448Z,13.83
2017-09-01T07:44:25.514Z,13.83
2017-09-01T07:46:51.651Z,14.57
2017-09-01T07:49:17.737Z,12.90
2017-09-01T07:51:43.786Z,14.00
2017-09-01T07:54:09.850Z,13.50
2017-09-01T07:56:35.952Z,14.70
2017-09-01T07:59:02.008Z,14.80
2017-09-01T08:01:28.124Z,15.40
2017-09-01T08:03:54.166Z,14.30
2017-09-01T08:06:20.251Z,15.27
2017-09-01T08:08:46.329Z,14.97
2017-09-01T08:11:12.387Z,14.10
2017-09-01T08:13:38.493Z,13.57
2017-09-01T08:16:04.562Z,15.97
2017-09-01T08:18:30.632Z,13.97
2017-09-01T08:20:56.788Z,14.73
2017-09-01T08:23:22.913Z,14.07
2017-09-01T08:25:48.998Z,14.73
2017-09-01T08:28:15.096Z,13.77
2017-09-01T08:30:41.218Z,14.60
2017-09-01T08:33:07.304Z,14.77
2017-09-01T08:35:33.415Z,14.23
2017-09-01T08:37:59.506Z,13.27
2017-09-01T08:40:25.598Z,13.30
2017-09-01T08:42:51.726Z,16.03
2017-09-01T08:45:17.802Z,14.43
2017-09-01T08:47:43.892Z,14.50
2017-09-01T08:50:09.990Z,13.83
2017-09-01T08:52:36.081Z,11.93
2017-09-01T08:55:02.189Z,9.90
2017-09-01T08:57:29.135Z,11.10
2017-09-01T08:59:55.204Z,10.30
2017-09-01T09:02:21.287Z,9.73
2017-09-01T09:04:47.387Z,9.67
2017-09-01T09:07:13.484Z,10.03
2017-09-01T09:09:39.755Z,10.13
2017-09-01T09:12:05.821Z,10.40
2017-09-01T09:14:31.915Z,9.50
2017-09-01T09:16:58.036Z,10.00
2017-09-01T09:19:24.107Z,9.60
2017-09-01T09:21:50.220Z,10.67
2017-09-01T09:24:16.315Z,10.67
2017-09-01T09:26:42.404Z,11.10
2017-09-01T09:29:08.525Z,11.83
2017-09-01T09:31:34.610Z,10.80
2017-09-01T09:34:00.677Z,12.30
2017-09-01T09:36:26.809Z,12.47
2017-09-01T09:38:52.925Z,12.53
2017-09-01T09:41:19.060Z,12.70
2017-09-01T09:43:45.158Z,13.53
2017-09-01T09:46:11.245Z,13.27
2017-09-01T09:48:37.371Z,14.07
2017-09-01T09:51:03.449Z,13.67
2017-09-01T09:53:29.552Z,13.63
2017-09-01T09:55:55.619Z,15.90
2017-09-01T09:58:21.699Z,17.37
2017-09-01T10:00:47.853Z,16.47
2017-09-01T10:03:13.953Z,15.97
2017-09-01T10:05:40.356Z,16.57
2017-09-01T10:08:06.435Z,17.13
2017-09-01T10:10:32.984Z,15.83
2017-09-01T10:12:59.067Z,15.73
2017-09-01T10:15:25.129Z,16.30
2017-09-01T10:17:51.228Z,17.30
2017-09-01T10:20:17.338Z,16.03
2017-09-01T10:22:43.475Z,16.20
2017-09-01T10:25:09.560Z,14.93
2017-09-01T10:27:35.689Z,15.03
2017-09-01T10:30:01.794Z,16.13
2017-09-01T10:32:27.885Z,14.80
2017-09-01T10:34:54.055Z,15.93
2017-09-01T10:37:20.194Z,15.23
2017-09-01T10:39:46.284Z,16.40
2017-09-01T10:42:12.372Z,16.20
2017-09-01T10:44:38.457Z,17.40
2017-09-01T10:47:04.578Z,15.80
2017-09-01T10:49:49.384Z,16.10
2017-09-01T10:52:34.141Z,14.10
2017-09-01T10:55:19.116Z,15.87
2017-09-01T10:58:03.980Z,15.73
2017-09-01T11:00:30.062Z,15.50
2017-09-01T11:02:56.179Z,17.30
2017-09-01T11:05:22.301Z,17.00
2017-09-01T11:07:48.409Z,17.13
2017-09-01T11:10:14.555Z,15.87
2017-09-01T11:12:40.745Z,15.43
2017-09-01T11:15:06.875Z,14.77
2017-09-01T11:17:33.060Z,14.60
2017-09-01T11:20:05.486Z,13.80
2017-09-01T11:25:41.893Z,14.27
2017-09-01T11:28:08.012Z,13.63
2017-09-01T11:30:34.101Z,14.40
2017-09-01T11:33:00.325Z,14.40
2017-09-01T11:35:26.490Z,13.53
2017-09-01T11:37:52.619Z,13.27
2017-09-01T11:40:18.704Z,13.40
2017-09-01T11:42:44.863Z,13.67
2017-09-01T11:45:10.957Z,12.10
2017-09-01T11:47:37.134Z,12.30
2017-09-01T11:50:03.268Z,12.10
2017-09-01T11:52:29.468Z,13.27
2017-09-01T11:54:55.561Z,10.40
2017-09-01T11:57:21.792Z,11.43
2017-09-01T11:59:47.885Z,11.20
2017-09-01T12:02:14.099Z,10.40
2017-09-01T12:04:40.214Z,10.07
2017-09-01T12:07:06.324Z,9.60
2017-09-01T12:09:32.451Z,10.00
2017-09-01T12:11:58.920Z,10.20
2017-09-01T12:14:25.059Z,11.20
2017-09-01T12:16:51.169Z,9.80
2017-09-01T12:19:17.241Z,8.47
2017-09-01T12:21:43.391Z,8.63
2017-09-01T12:24:10.429Z,9.03
2017-09-01T12:26:36.567Z,9.20
2017-09-01T12:29:02.722Z,8.50
2017-09-01T12:31:28.877Z,9.40
2017-09-01T12:33:54.983Z,8.00
2017-09-01T12:36:21.065Z,8.23
2017-09-01T12:38:47.215Z,8.03
2017-09-01T12:41:13.307Z,8.10
2017-09-01T12:43:39.455Z,9.80
2017-09-01T12:46:05.595Z,7.40
2017-09-01T12:48:32.342Z,7.93
2017-09-01T12:50:58.463Z,7.50
2017-09-01T12:53:24.826Z,6.40
2017-09-01T12:55:50.995Z,6.47
2017-09-01T12:58:17.089Z,5.90
2017-09-01T13:00:43.185Z,5.47
2017-09-01T13:03:09.289Z,5.70
2017-09-01T13:05:35.397Z,4.43
2017-09-01T13:08:01.519Z,5.20
2017-09-01T13:10:27.599Z,4.73
2017-09-01T13:12:53.705Z,5.30
2017-09-01T13:15:19.997Z,6.40
2017-09-01T13:17:46.084Z,5.17
2017-09-01T13:20:12.225Z,6.73
2017-09-01T13:22:38.343Z,6.33
2017-09-01T13:25:04.435Z,4.90
2017-09-01T13:27:30.523Z,6.53
2017-09-01T13:29:56.675Z,5.70
2017-09-01T13:32:22.812Z,5.77
2017-09-01T13:34:48.949Z,6.33
2017-09-01T13:37:15.034Z,6.67
2017-09-01T13:39:41.131Z,6.27
2017-09-01T13:42:07.246Z,6.80
2017-09-01T13:44:33.373Z,6.17
2017-09-01T13:46:59.467Z,6.63
2017-09-01T13:49:25.565Z,6.67
2017-09-01T13:51:51.722Z,7.80
2017-09-01T13:54:17.821Z,6.90
2017-09-01T13:56:44.151Z,7.37
2017-09-01T13:59:17.075Z,6.30
2017-09-01T14:01:43.180Z,7.00
2017-09-01T14:04:16.222Z,7.17
2017-09-01T14:06:42.320Z,7.73
2017-09-01T14:09:08.400Z,6.70
2017-09-01T14:11:34.513Z,7.33
2017-09-01T14:14:00.596Z,7.90
2017-09-01T14:16:26.726Z,6.40
2017-09-01T14:18:52.870Z,7.30
2017-09-01T14:21:18.944Z,6.77
2017-09-01T14:23:45.006Z,5.50
2017-09-01T14:26:11.108Z,5.97
2017-09-01T14:28:37.183Z,5.67
2017-09-01T14:31:03.375Z,5.47
2017-09-01T14:33:29.508Z,6.97
2017-09-01T14:35:55.569Z,5.93
2017-09-01T14:38:21.678Z,5.23
2017-09-01T14:40:47.795Z,5.60
2017-09-01T14:43:14.055Z,5.67
2017-09-01T14:45:40.146Z,5.23
2017-09-01T14:48:06.234Z,3.70
2017-09-01T14:50:32.320Z,2.70
2017-09-01T14:52:58.398Z,3.90
2017-09-01T14:55:24.569Z,4.60
2017-09-01T14:57:50.727Z,4.30
2017-09-01T15:00:16.824Z,4.23
2017-09-01T15:02:43.032Z,4.10
2017-09-01T15:05:09.128Z,4.07
2017-09-01T15:07:35.226Z,3.60
2017-09-01T15:10:01.334Z,3.90
2017-09-01T15:12:27.426Z,4.10
2017-09-01T15:14:53.620Z,3.47
2017-09-01T15:17:19.709Z,3.50
2017-09-01T15:19:45.824Z,3.40
2017-09-01T15:22:11.950Z,3.40
2017-09-01T15:24:38.082Z,3.63
2017-09-01T15:27:11.255Z,4.07
2017-09-01T15:29:37.355Z,4.67
2017-09-01T15:32:05.443Z,4.20
2017-09-01T15:34:31.539Z,4.60
2017-09-01T15:36:57.596Z,3.73
2017-09-01T15:39:23.726Z,4.20
2017-09-01T15:41:49.888Z,3.83
2017-09-01T15:44:15.968Z,4.10
2017-09-01T15:46:42.051Z,4.23
2017-09-01T15:49:08.135Z,4.87
2017-09-01T15:51:34.391Z,4.20
2017-09-01T15:54:00.539Z,5.10
2017-09-01T15:56:26.646Z,5.33
2017-09-01T15:58:52.792Z,5.53
2017-09-01T16:01:19.077Z,5.90
2017-09-01T16:03:45.231Z,6.03
2017-09-01T16:06:11.317Z,6.30
2017-09-01T16:08:37.469Z,5.77
2017-09-01T16:11:03.578Z,5.47
2017-09-01T16:13:29.708Z,6.20
2017-09-01T16:15:55.866Z,3.97
2017-09-01T16:18:21.971Z,3.77
2017-09-01T16:20:48.086Z,4.00
2017-09-01T16:23:14.220Z,3.93
2017-09-01T16:25:40.335Z,4.27
2017-09-01T16:28:06.458Z,4.30
2017-09-01T16:30:32.623Z,4.17
2017-09-01T16:32:58.710Z,4.60
2017-09-01T16:35:24.814Z,4.13
2017-09-01T16:37:50.901Z,3.40
2017-09-01T16:40:16.996Z,5.30
2017-09-01T16:42:43.121Z,3.07
2017-09-01T16:45:09.218Z,3.40
2017-09-01T16:47:35.338Z,4.17
2017-09-01T16:50:01.436Z,4.60
2017-09-01T16:52:27.555Z,3.70
2017-09-01T16:54:53.731Z,3.33
2017-09-01T16:57:19.878Z,4.50
2017-09-01T16:59:45.962Z,3.60
2017-09-01T17:02:12.101Z,3.50
2017-09-01T17:04:38.261Z,3.27
2017-09-01T17:07:04.385Z,4.10
2017-09-01T17:09:30.614Z,4.23
2017-09-01T17:11:56.738Z,3.23
2017-09-01T17:14:22.813Z,5.20
2017-09-01T17:16:48.908Z,4.80
2017-09-01T17:19:15.012Z,4.93
2017-09-01T17:21:41.114Z,5.20
2017-09-01T17:24:07.250Z,3.57
2017-09-01T17:26:33.390Z,3.27
2017-09-01T17:28:59.481Z,3.53
2017-09-01T17:31:25.562Z,3.50
2017-09-01T17:33:51.680Z,3.47
2017-09-01T17:36:17.768Z,4.37
2017-09-01T17:38:43.859Z,3.37
2017-09-01T17:41:09.961Z,2.60
2017-09-01T17:43:36.352Z,2.57
2017-09-01T17:46:02.452Z,2.83
2017-09-01T17:48:28.546Z,3.17
2017-09-01T17:50:54.656Z,3.00
2017-09-01T17:53:20.754Z,3.83
2017-09-01T17:55:46.820Z,5.00
2017-09-01T17:58:12.937Z,3.83
2017-09-01T18:00:39.024Z,5.13
2017-09-01T18:03:05.152Z,4.90
2017-09-01T18:05:31.252Z,5.63
2017-09-01T18:07:57.369Z,7.53
2017-09-01T18:10:23.470Z,6.30
2017-09-01T18:12:49.606Z,15.53
2017-09-01T18:15:16.094Z,11.20
2017-09-01T18:17:42.542Z,11.60
2017-09-01T18:20:08.647Z,4.87
2017-09-01T18:22:34.798Z,10.10
2017-09-01T18:25:00.898Z,7.10
2017-09-01T18:27:26.971Z,6.50
2017-09-01T18:29:53.132Z,4.40
2017-09-01T18:32:19.233Z,3.90
2017-09-01T18:34:45.394Z,4.93
2017-09-01T18:37:11.723Z,4.97
2017-09-01T18:39:37.876Z,4.33
2017-09-01T18:42:03.977Z,4.60
2017-09-01T18:44:30.100Z,4.03
2017-09-01T18:46:56.202Z,4.80
2017-09-01T18:49:22.566Z,4.20
2017-09-01T18:51:48.679Z,3.10
2017-09-01T18:54:14.844Z,3.20
2017-09-01T18:56:40.971Z,3.67
2017-09-01T18:59:07.100Z,2.90
2017-09-01T19:01:33.207Z,2.40
2017-09-01T19:03:59.294Z,3.40
2017-09-01T19:06:25.463Z,3.00
2017-09-01T19:08:51.606Z,3.40
2017-09-01T19:11:17.730Z,4.00
2017-09-01T19:13:43.873Z,3.93
2017-09-01T19:16:09.986Z,3.90
2017-09-01T19:18:36.078Z,4.83
2017-09-01T19:21:02.437Z,4.20
2017-09-01T19:23:28.561Z,4.57
2017-09-01T19:25:54.683Z,5.10
2017-09-01T19:28:20.831Z,5.53
2017-09-01T19:30:46.892Z,4.53
2017-09-01T19:33:12.979Z,4.80
2017-09-01T19:35:39.060Z,4.77
2017-09-01T19:38:05.144Z,4.10
2017-09-01T19:40:31.270Z,4.90
2017-09-01T19:42:57.362Z,4.87
2017-09-01T19:45:23.468Z,4.20
2017-09-01T19:47:49.599Z,5.83
2017-09-01T19:50:15.711Z,6.13
2017-09-01T19:52:42.255Z,5.33
2017-09-01T19:55:08.349Z,6.33
2017-09-01T19:57:34.427Z,6.00
2017-09-01T20:00:00.541Z,5.60
2017-09-01T20:02:26.639Z,4.80
2017-09-01T20:04:52.787Z,4.10
2017-09-01T20:07:18.902Z,4.00
2017-09-01T20:09:45.029Z,4.37
2017-09-01T20:12:11.175Z,3.80
2017-09-01T20:14:37.263Z,4.10
2017-09-01T20:17:03.414Z,4.40
2017-09-01T20:19:29.506Z,4.60
2017-09-01T20:21:55.776Z,4.83
2017-09-01T20:24:21.901Z,4.37
2017-09-01T20:26:48.011Z,5.80
2017-09-01T20:29:14.134Z,5.50
2017-09-01T20:31:40.235Z,4.90
2017-09-01T20:34:07.395Z,5.07
2017-09-01T20:36:33.477Z,5.10
2017-09-01T20:38:59.594Z,4.70
2017-09-01T20:41:25.755Z,4.70
2017-09-01T20:43:52.403Z,4.20
2017-09-01T20:46:18.527Z,3.43
2017-09-01T20:48:44.692Z,3.30
2017-09-01T20:51:10.994Z,3.50
2017-09-01T20:53:37.185Z,3.80
2017-09-01T20:56:03.322Z,4.43
2017-09-01T20:58:29.432Z,4.80
2017-09-01T21:00:55.802Z,5.83
2017-09-01T21:03:21.916Z,5.90
2017-09-01T21:05:48.061Z,5.73
2017-09-01T21:08:14.156Z,5.37
2017-09-01T21:10:40.278Z,5.40
2017-09-01T21:13:06.454Z,5.00
2017-09-01T21:15:32.591Z,5.40
2017-09-01T21:17:58.768Z,5.10
2017-09-01T21:20:24.942Z,4.90
2017-09-01T21:22:51.069Z,4.73
2017-09-01T21:25:17.196Z,6.17
2017-09-01T21:27:43.259Z,5.80
2017-09-01T21:30:09.383Z,5.10
2017-09-01T21:32:35.986Z,5.63
2017-09-01T21:35:02.106Z,6.40
2017-09-01T21:37:28.224Z,7.03
2017-09-01T21:39:54.317Z,6.87
2017-09-01T21:42:20.407Z,7.23
2017-09-01T21:44:46.598Z,6.07
2017-09-01T21:47:12.868Z,6.33
2017-09-01T21:49:38.960Z,6.23
2017-09-01T21:52:05.071Z,6.10
2017-09-01T21:54:31.198Z,5.80
2017-09-01T21:56:57.291Z,5.27
2017-09-01T21:59:23.398Z,6.40
2017-09-01T22:01:49.508Z,5.07
2017-09-01T22:04:15.663Z,5.10
2017-09-01T22:06:41.752Z,5.67
2017-09-01T22:09:07.878Z,5.60
2017-09-01T22:11:34.087Z,5.90
2017-09-01T22:14:00.192Z,5.03
2017-09-01T22:16:26.282Z,5.30
2017-09-01T22:18:53.048Z,5.63
2017-09-01T22:21:19.176Z,5.97
2017-09-01T22:23:45.380Z,5.30
2017-09-01T22:26:11.472Z,6.23
2017-09-01T22:28:37.585Z,6.83
2017-09-01T22:31:03.732Z,6.43
2017-09-01T22:33:29.895Z,6.33
2017-09-01T22:35:56.198Z,6.43
2017-09-01T22:38:22.630Z,6.37
2017-09-01T22:40:48.731Z,7.03
2017-09-01T22:43:14.864Z,6.47
2017-09-01T22:45:40.992Z,6.37
2017-09-01T22:48:07.137Z,6.60
2017-09-01T22:50:33.207Z,7.63
2017-09-01T22:52:59.609Z,7.33
2017-09-01T22:55:25.696Z,6.93
2017-09-01T22:57:51.813Z,7.27
2017-09-01T23:00:23.899Z,7.00
2017-09-01T23:02:50.015Z,7.93
2017-09-01T23:05:16.144Z,7.93
2017-09-01T23:07:42.222Z,8.43
2017-09-01T23:10:08.327Z,7.53
2017-09-01T23:12:34.416Z,7.60
2017-09-01T23:15:00.686Z,6.80
2017-09-01T23:17:26.756Z,9.47
2017-09-01T23:19:52.900Z,7.90
2017-09-01T23:22:19.011Z,8.60
2017-09-01T23:24:45.148Z,8.13
2017-09-01T23:27:11.296Z,7.20
2017-09-01T23:29:37.376Z,7.60
2017-09-01T23:32:03.459Z,7.50
2017-09-01T23:34:29.604Z,7.80
2017-09-01T23:36:55.969Z,6.60
2017-09-01T23:39:22.962Z,7.83
2017-09-01T23:41:49.040Z,7.83
2017-09-01T23:44:15.136Z,8.77
2017-09-01T23:46:41.217Z,8.73
2017-09-01T23:49:07.311Z,7.47
2017-09-01T23:51:33.373Z,8.37
2017-09-01T23:53:59.489Z,8.93
2017-09-01T23:56:25.573Z,7.77
2017-09-01T23:58:51.664Z,7.87
